createdAt,value
2022-09-14T00:01:43.175Z,20.90
2022-09-14T00:04:51.933Z,20.90
2022-09-14T00:07:54.336Z,20.70
2022-09-14T00:10:56.392Z,20.70
2022-09-14T00:13:59.329Z,20.60
2022-09-14T00:17:06.708Z,20.70
2022-09-14T00:20:09.442Z,20.80
2022-09-14T00:23:11.327Z,20.60
2022-09-14T00:26:17.220Z,20.60
2022-09-14T00:29:20.275Z,20.60
2022-09-14T00:32:22.060Z,20.60
2022-09-14T00:35:24.750Z,20.60
2022-09-14T00:38:26.632Z,20.60
2022-09-14T00:41:37.989Z,20.70
2022-09-14T00:44:39.770Z,20.60
2022-09-14T00:47:42.325Z,20.70
2022-09-14T00:50:44.772Z,20.70
2022-09-14T00:53:47.573Z,20.50
2022-09-14T00:56:50.237Z,20.60
2022-09-14T00:59:53.723Z,20.50
2022-09-14T01:02:55.810Z,20.50
2022-09-14T01:06:16.117Z,20.50
2022-09-14T01:09:33.447Z,20.50
2022-09-14T01:12:36.642Z,20.40
2022-09-14T01:15:47.455Z,20.50
2022-09-14T01:19:04.976Z,20.50
2022-09-14T01:22:15.794Z,20.50
2022-09-14T01:25:37.582Z,20.50
2022-09-14T01:28:52.044Z,20.50
2022-09-14T01:32:06.076Z,20.60
2022-09-14T01:35:16.144Z,20.50
2022-09-14T01:38:29.219Z,20.50
2022-09-14T01:41:32.354Z,20.40
2022-09-14T01:44:37.360Z,20.50
2022-09-14T01:47:50.091Z,20.50
2022-09-14T01:50:55.904Z,20.40
2022-09-14T01:54:09.494Z,20.40
2022-09-14T01:57:11.291Z,20.40
2022-09-14T02:00:17.560Z,20.20
2022-09-14T02:03:30.490Z,20.20
2022-09-14T02:06:43.386Z,20.10
2022-09-14T02:09:50.755Z,20.00
2022-09-14T02:12:53.790Z,19.90
2022-09-14T02:15:56.187Z,20.00
2022-09-14T02:18:58.227Z,19.90
2022-09-14T02:22:00.371Z,19.90
2022-09-14T02:25:03.754Z,19.90
2022-09-14T02:28:05.753Z,20.00
2022-09-14T02:31:25.795Z,20.00
2022-09-14T02:34:57.651Z,20.00
2022-09-14T02:38:25.784Z,19.80
2022-09-14T02:41:51.327Z,19.90
2022-09-14T02:45:10.991Z,19.90
2022-09-14T02:48:15.588Z,19.90
2022-09-14T02:51:46.310Z,19.90
2022-09-14T02:54:57.880Z,19.90
2022-09-14T02:58:11.505Z,19.90
2022-09-14T03:01:16.523Z,19.90
2022-09-14T03:04:18.491Z,19.90
2022-09-14T03:07:20.723Z,20.00
2022-09-14T03:10:22.550Z,19.90
2022-09-14T03:13:24.487Z,19.90
2022-09-14T03:16:29.136Z,19.90
2022-09-14T03:19:31.068Z,19.90
2022-09-14T03:22:33.388Z,19.90
2022-09-14T03:25:53.291Z,19.90
2022-09-14T03:28:58.012Z,19.90
2022-09-14T03:31:59.936Z,19.90
2022-09-14T03:35:01.954Z,19.90
2022-09-14T03:38:06.411Z,19.90
2022-09-14T03:41:09.727Z,19.90
2022-09-14T03:44:12.510Z,19.80
2022-09-14T03:47:15.051Z,19.70
2022-09-14T03:50:20.246Z,19.80
2022-09-14T03:53:22.239Z,19.80
2022-09-14T03:56:24.148Z,19.80
2022-09-14T03:59:26.010Z,19.80
2022-09-14T04:02:29.356Z,19.80
2022-09-14T04:05:31.269Z,19.90
2022-09-14T04:08:36.789Z,19.90
2022-09-14T04:11:38.622Z,19.90
2022-09-14T04:14:43.694Z,19.80
2022-09-14T04:17:45.748Z,19.90
2022-09-14T04:21:08.039Z,19.80
2022-09-14T04:24:15.648Z,19.80
2022-09-14T04:27:18.357Z,19.90
2022-09-14T04:30:22.075Z,19.90
2022-09-14T04:33:24.277Z,19.80
2022-09-14T04:36:28.745Z,19.80
2022-09-14T04:39:30.818Z,19.80
2022-09-14T04:42:32.727Z,19.90
2022-09-14T04:45:34.628Z,19.90
2022-09-14T04:48:36.954Z,19.80
2022-09-14T04:51:42.898Z,19.80
2022-09-14T04:54:44.859Z,19.80
2022-09-14T04:57:46.683Z,19.90
2022-09-14T05:00:48.613Z,19.90
2022-09-14T05:03:51.528Z,19.80
2022-09-14T05:06:53.608Z,19.90
2022-09-14T05:09:55.504Z,19.90
2022-09-14T05:12:57.490Z,19.90
2022-09-14T05:16:30.249Z,19.90
2022-09-14T05:19:32.173Z,19.90
2022-09-14T05:22:34.064Z,19.90
2022-09-14T05:25:35.907Z,19.90
2022-09-14T05:28:38.282Z,19.90
2022-09-14T05:31:41.408Z,20.00
2022-09-14T05:34:43.333Z,19.90
2022-09-14T05:37:45.573Z,19.90
2022-09-14T05:40:47.698Z,19.90
2022-09-14T05:43:50.041Z,19.90
2022-09-14T05:46:52.219Z,19.90
2022-09-14T05:49:54.006Z,19.90
2022-09-14T05:52:56.233Z,20.00
2022-09-14T05:56:06.322Z,20.00
2022-09-14T05:59:08.181Z,20.00
2022-09-14T06:02:14.408Z,20.00
2022-09-14T06:05:18.851Z,20.00
2022-09-14T06:08:21.301Z,20.00
2022-09-14T06:11:26.314Z,20.00
2022-09-14T06:14:28.558Z,20.10
2022-09-14T06:17:31.952Z,20.20
2022-09-14T06:20:37.099Z,20.20
2022-09-14T06:23:39.020Z,20.30
2022-09-14T06:26:41.394Z,20.20
2022-09-14T06:29:44.821Z,20.30
2022-09-14T06:32:46.881Z,20.30
2022-09-14T06:42:46.448Z,20.40
2022-09-14T06:46:06.468Z,20.40
2022-09-14T06:49:11.965Z,20.50
2022-09-14T06:52:16.643Z,20.70
2022-09-14T06:55:20.178Z,20.70
2022-09-14T06:58:22.026Z,20.90
2022-09-14T07:01:24.240Z,20.70
2022-09-14T07:04:26.554Z,20.70
2022-09-14T07:07:28.596Z,20.80
2022-09-14T07:10:30.483Z,20.80
2022-09-14T07:13:32.578Z,21.00
2022-09-14T07:16:35.620Z,21.00
2022-09-14T07:19:37.457Z,21.10
2022-09-14T07:22:39.432Z,21.20
2022-09-14T07:25:41.660Z,21.40
2022-09-14T07:28:45.536Z,21.40
2022-09-14T07:31:50.206Z,21.50
2022-09-14T07:34:52.244Z,21.60
2022-09-14T07:37:55.007Z,21.90
2022-09-14T07:41:00.735Z,22.10
2022-09-14T07:44:08.365Z,22.90
2022-09-14T07:47:10.743Z,22.80
2022-09-14T07:50:12.970Z,23.60
2022-09-14T07:53:15.306Z,23.40
2022-09-14T07:56:17.450Z,23.50
2022-09-14T07:59:36.927Z,24.50
2022-09-14T08:02:39.490Z,25.20
2022-09-14T08:05:41.462Z,26.00
2022-09-14T08:08:45.460Z,25.90
2022-09-14T08:11:47.685Z,25.20
2022-09-14T08:14:51.535Z,24.90
2022-09-14T08:17:53.581Z,24.90
2022-09-14T08:20:55.713Z,24.50
2022-09-14T08:23:58.807Z,24.40
2022-09-14T08:27:06.819Z,25.20
2022-09-14T08:30:09.223Z,25.40
2022-09-14T08:33:13.225Z,25.20
2022-09-14T08:36:17.798Z,25.00
2022-09-14T08:39:19.709Z,25.10
2022-09-14T08:42:23.025Z,25.80
2022-09-14T08:45:28.347Z,26.30
2022-09-14T08:48:43.631Z,25.40
2022-09-14T08:51:49.786Z,25.00
2022-09-14T08:55:00.112Z,25.00
2022-09-14T08:58:26.788Z,26.10
2022-09-14T09:01:56.947Z,27.00
2022-09-14T09:05:13.596Z,28.00
2022-09-14T09:08:22.837Z,28.20
2022-09-14T09:11:31.777Z,27.50
2022-09-14T09:14:43.623Z,28.30
2022-09-14T09:17:50.182Z,27.50
2022-09-14T09:20:58.626Z,28.00
2022-09-14T09:24:37.552Z,28.10
2022-09-14T09:27:40.109Z,26.70
2022-09-14T09:30:43.445Z,26.40
2022-09-14T09:33:50.010Z,26.30
2022-09-14T09:36:56.954Z,26.20
2022-09-14T09:40:00.666Z,26.90
2022-09-14T09:43:21.178Z,27.50
2022-09-14T09:46:33.533Z,27.70
2022-09-14T09:49:38.638Z,27.90
2022-09-14T09:52:58.005Z,27.80
2022-09-14T09:56:05.580Z,28.50
2022-09-14T09:59:22.744Z,28.40
2022-09-14T10:02:34.527Z,28.00
2022-09-14T10:05:37.217Z,28.60
2022-09-14T10:08:47.251Z,29.00
2022-09-14T10:12:05.999Z,29.00
2022-09-14T10:15:11.752Z,29.30
2022-09-14T10:18:20.710Z,30.00
2022-09-14T10:21:24.650Z,30.20
2022-09-14T10:24:28.560Z,30.40
2022-09-14T10:27:37.592Z,30.10
2022-09-14T10:30:45.930Z,30.20
2022-09-14T10:33:52.091Z,30.50
2022-09-14T10:37:08.198Z,30.50
2022-09-14T10:40:15.962Z,30.60
2022-09-14T10:43:32.354Z,30.50
2022-09-14T10:46:47.426Z,30.50
2022-09-14T10:50:00.528Z,30.80
2022-09-14T11:03:56.900Z,30.50
2022-09-14T11:07:20.179Z,30.10
2022-09-14T11:10:25.028Z,30.30
2022-09-14T11:13:39.457Z,29.90
2022-09-14T11:17:02.079Z,29.40
2022-09-14T11:20:10.165Z,29.60
2022-09-14T11:23:30.916Z,29.40
2022-09-14T11:26:58.449Z,29.20
2022-09-14T11:30:06.021Z,28.60
2022-09-14T11:33:35.841Z,28.40
2022-09-14T11:36:44.114Z,28.00
2022-09-14T11:40:01.172Z,27.80
2022-09-14T11:43:11.589Z,27.70
2022-09-14T11:46:19.203Z,27.40
2022-09-14T11:49:39.748Z,27.30
2022-09-14T11:52:42.942Z,27.30
2022-09-14T11:55:48.579Z,27.10
2022-09-14T11:58:50.862Z,27.00
2022-09-14T12:01:53.101Z,26.80
2022-09-14T12:05:07.129Z,26.80
2022-09-14T12:08:35.858Z,26.60
2022-09-14T12:11:38.422Z,26.40
2022-09-14T12:14:41.097Z,26.40
2022-09-14T12:17:43.324Z,26.20
2022-09-14T12:20:47.966Z,26.10
2022-09-14T12:23:52.099Z,26.00
2022-09-14T12:26:54.648Z,26.00
2022-09-14T12:29:56.464Z,25.90
2022-09-14T12:32:58.277Z,25.90
2022-09-14T12:36:05.383Z,25.70
2022-09-14T12:39:23.598Z,25.50
2022-09-14T12:42:29.340Z,25.50
2022-09-14T12:45:51.202Z,24.80
2022-09-14T12:49:15.121Z,23.50
2022-09-14T12:52:35.580Z,23.00
2022-09-14T12:55:56.844Z,22.60
2022-09-14T12:59:26.228Z,22.40
2022-09-14T13:02:49.475Z,22.10
2022-09-14T13:05:51.676Z,22.20
2022-09-14T13:08:57.891Z,22.10
2022-09-14T13:12:06.123Z,21.90
2022-09-14T13:15:20.841Z,22.00
2022-09-14T13:18:22.915Z,22.00
2022-09-14T13:21:25.142Z,21.80
2022-09-14T13:24:46.091Z,21.90
2022-09-14T13:27:52.543Z,21.80
2022-09-14T13:30:57.355Z,21.70
2022-09-14T13:34:01.775Z,21.80
2022-09-14T13:37:05.267Z,21.80
2022-09-14T13:40:13.615Z,21.90
2022-09-14T13:43:17.683Z,21.90
2022-09-14T13:46:20.774Z,21.90
2022-09-14T13:49:23.196Z,22.00
2022-09-14T13:52:38.557Z,22.00
2022-09-14T13:55:47.562Z,22.00
2022-09-14T13:59:11.022Z,22.10
2022-09-14T14:02:13.960Z,22.10
2022-09-14T14:05:23.895Z,22.00
2022-09-14T14:08:35.924Z,22.00
2022-09-14T14:11:37.746Z,22.00
2022-09-14T14:14:39.708Z,22.10
2022-09-14T14:17:41.849Z,22.10
2022-09-14T14:20:43.785Z,22.10
2022-09-14T14:24:11.679Z,22.00
2022-09-14T14:27:35.581Z,22.10
2022-09-14T14:30:40.522Z,22.10
2022-09-14T14:33:48.330Z,22.10
2022-09-14T14:36:50.620Z,22.10
2022-09-14T14:39:52.524Z,22.10
2022-09-14T14:42:57.352Z,22.10
2022-09-14T14:46:01.232Z,22.00
2022-09-14T14:49:03.230Z,22.00
2022-09-14T14:52:05.052Z,22.10
2022-09-14T14:55:07.388Z,22.10
2022-09-14T14:58:16.346Z,22.00
2022-09-14T15:01:18.219Z,22.10
2022-09-14T15:07:27.383Z,22.10
2022-09-14T15:10:29.644Z,22.10
2022-09-14T15:13:31.646Z,22.10
2022-09-14T15:16:33.517Z,22.10
2022-09-14T15:19:35.641Z,22.00
2022-09-14T15:22:38.028Z,22.10
2022-09-14T15:25:40.118Z,22.10
2022-09-14T15:28:42.237Z,22.10
2022-09-14T15:31:44.597Z,22.10
2022-09-14T15:34:46.737Z,22.20
2022-09-14T15:37:52.037Z,22.40
2022-09-14T15:40:54.072Z,22.40
2022-09-14T15:43:55.960Z,22.60
2022-09-14T15:46:58.156Z,22.70
2022-09-14T15:50:00.291Z,22.80
2022-09-14T15:53:02.905Z,22.90
2022-09-14T15:56:13.256Z,23.00
2022-09-14T15:59:15.294Z,23.00
2022-09-14T16:02:17.448Z,23.10
2022-09-14T16:05:19.790Z,23.00
2022-09-14T16:08:21.771Z,23.00
2022-09-14T16:11:24.395Z,23.00
2022-09-14T16:14:26.263Z,22.90
2022-09-14T16:17:28.136Z,23.00
2022-09-14T16:20:30.124Z,22.80
2022-09-14T16:23:33.685Z,22.90
2022-09-14T16:26:37.127Z,22.90
2022-09-14T16:29:39.405Z,22.90
2022-09-14T16:32:41.354Z,22.90
2022-09-14T16:35:43.314Z,22.90
2022-09-14T16:38:48.172Z,22.80
2022-09-14T16:41:51.034Z,22.80
2022-09-14T16:44:53.043Z,22.70
2022-09-14T16:47:55.113Z,22.70
2022-09-14T16:50:58.466Z,22.60
2022-09-14T16:54:01.279Z,22.50
2022-09-14T16:57:03.567Z,22.60
2022-09-14T17:00:06.249Z,22.60
2022-09-14T17:03:08.233Z,22.50
2022-09-14T17:06:12.506Z,22.50
2022-09-14T17:09:17.608Z,22.40
2022-09-14T17:12:19.782Z,22.40
2022-09-14T17:15:21.909Z,22.40
2022-09-14T17:18:24.121Z,22.40
2022-09-14T17:21:29.606Z,22.40
2022-09-14T17:24:31.897Z,22.40
2022-09-14T17:27:34.680Z,22.40
2022-09-14T17:30:36.635Z,22.40
2022-09-14T17:33:39.009Z,22.30
2022-09-14T17:36:41.225Z,22.30
2022-09-14T17:39:43.379Z,22.30
2022-09-14T17:42:46.869Z,22.30
2022-09-14T17:45:57.046Z,22.20
2022-09-14T17:49:01.311Z,22.20
2022-09-14T17:52:03.487Z,22.10
2022-09-14T17:55:06.784Z,22.10
2022-09-14T17:58:09.998Z,22.10
2022-09-14T18:01:20.935Z,22.10
2022-09-14T18:04:23.019Z,22.00
2022-09-14T18:07:25.049Z,22.00
2022-09-14T18:10:26.840Z,22.00
2022-09-14T18:13:28.841Z,21.90
2022-09-14T18:16:32.218Z,21.80
2022-09-14T18:19:34.152Z,21.80
2022-09-14T18:22:39.200Z,21.80
2022-09-14T18:25:41.482Z,21.90
2022-09-14T18:28:44.305Z,21.90
2022-09-14T18:31:46.617Z,21.90
2022-09-14T18:34:49.172Z,21.70
2022-09-14T18:37:52.015Z,21.70
2022-09-14T18:40:54.181Z,21.60
2022-09-14T18:43:56.264Z,21.50
2022-09-14T18:46:58.198Z,21.50
2022-09-14T18:50:00.240Z,21.50
2022-09-14T18:53:02.174Z,21.50
2022-09-14T18:56:05.470Z,21.50
2022-09-14T18:59:12.570Z,21.40
2022-09-14T19:02:14.542Z,21.40
2022-09-14T19:05:16.700Z,21.40
2022-09-14T19:08:18.643Z,21.40
2022-09-14T19:11:23.466Z,21.50
2022-09-14T19:14:26.728Z,21.50
2022-09-14T19:17:28.810Z,21.50
2022-09-14T19:20:55.087Z,21.40
2022-09-14T19:23:58.325Z,21.50
2022-09-14T19:27:00.583Z,21.40
2022-09-14T19:30:02.654Z,21.30
2022-09-14T19:33:04.785Z,21.30
2022-09-14T19:36:12.516Z,21.40
2022-09-14T19:39:14.993Z,21.40
2022-09-14T19:42:17.279Z,21.30
2022-09-14T19:45:19.659Z,21.40
2022-09-14T19:48:21.691Z,21.40
2022-09-14T19:51:25.363Z,21.40
2022-09-14T19:54:27.582Z,21.50
2022-09-14T19:57:29.753Z,21.50
2022-09-14T20:00:33.515Z,21.50
2022-09-14T20:03:35.913Z,21.60
2022-09-14T20:06:42.322Z,21.50
2022-09-14T20:09:44.496Z,21.50
2022-09-14T20:12:46.394Z,21.50
2022-09-14T20:15:48.293Z,21.50
2022-09-14T20:18:51.741Z,21.60
2022-09-14T20:21:54.102Z,21.60
2022-09-14T20:24:55.946Z,21.70
2022-09-14T20:27:57.976Z,21.70
2022-09-14T20:31:01.332Z,21.70
2022-09-14T20:34:03.979Z,21.70
2022-09-14T20:37:06.481Z,21.80
2022-09-14T20:40:09.530Z,21.80
2022-09-14T20:43:11.584Z,21.90
2022-09-14T20:46:14.515Z,21.80
2022-09-14T20:49:19.821Z,21.80
2022-09-14T20:52:21.795Z,21.80
2022-09-14T20:55:23.693Z,21.80
2022-09-14T20:58:25.813Z,21.90
2022-09-14T21:01:31.813Z,22.00
2022-09-14T21:04:35.289Z,21.90
2022-09-14T21:07:37.294Z,21.90
2022-09-14T21:10:41.261Z,21.90
2022-09-14T21:13:44.310Z,21.90
2022-09-14T21:16:49.256Z,21.80
2022-09-14T21:19:51.180Z,21.90
2022-09-14T21:22:53.168Z,21.90
2022-09-14T21:25:56.544Z,21.90
2022-09-14T21:29:00.485Z,21.90
2022-09-14T21:32:06.841Z,21.90
2022-09-14T21:35:10.799Z,21.80
2022-09-14T21:38:12.667Z,21.80
2022-09-14T21:41:14.497Z,21.80
2022-09-14T21:44:16.511Z,21.70
2022-09-14T21:47:18.291Z,21.70
2022-09-14T21:50:20.647Z,21.70
2022-09-14T21:53:22.623Z,21.60
2022-09-14T21:56:26.342Z,21.60
2022-09-14T21:59:28.181Z,21.60
2022-09-14T22:02:30.246Z,21.60
2022-09-14T22:05:32.117Z,21.50
2022-09-14T22:08:35.328Z,21.50
2022-09-14T22:11:38.187Z,21.50
2022-09-14T22:14:40.800Z,21.50
2022-09-14T22:17:42.671Z,21.50
2022-09-14T22:20:44.819Z,21.50
2022-09-14T22:23:55.132Z,21.50
2022-09-14T22:26:56.978Z,21.50
2022-09-14T22:29:58.795Z,21.50
2022-09-14T22:33:00.677Z,21.40
2022-09-14T22:36:04.091Z,21.40
2022-09-14T22:39:06.671Z,21.50
2022-09-14T22:42:08.914Z,21.50
2022-09-14T22:45:11.279Z,21.40
2022-09-14T22:48:13.150Z,21.40
2022-09-14T22:51:18.385Z,21.40
2022-09-14T22:54:20.233Z,21.40
2022-09-14T22:57:22.232Z,21.40
2022-09-14T23:00:23.962Z,21.40
2022-09-14T23:03:25.855Z,21.40
2022-09-14T23:06:38.783Z,21.30
2022-09-14T23:09:41.279Z,21.40
2022-09-14T23:12:43.127Z,21.30
2022-09-14T23:15:45.215Z,21.30
2022-09-14T23:18:59.635Z,21.20
2022-09-14T23:22:01.601Z,21.20
2022-09-14T23:25:04.608Z,21.20
2022-09-14T23:28:07.673Z,21.10
2022-09-14T23:31:09.754Z,21.00
2022-09-14T23:34:11.845Z,21.00
2022-09-14T23:37:14.351Z,21.00
2022-09-14T23:40:16.382Z,21.00
2022-09-14T23:43:19.511Z,21.00
2022-09-14T23:46:21.917Z,21.00
2022-09-14T23:49:23.836Z,21.00
2022-09-14T23:52:25.715Z,21.00
2022-09-14T23:55:27.840Z,21.00
2022-09-14T23:58:30.026Z,21.00
